sensor_id;sensor_type;location;lat;lon;timestamp;pressure;altitude;pressure_sealevel;temperature;humidity
72262;BME280;60173;52.112;8.648;2023-03-01T00:01:31;102109.28;;;-3.48;83.71
72262;BME280;60173;52.112;8.648;2023-03-01T00:03:58;102107.47;;;-3.48;83.77
72262;BME280;60173;52.112;8.648;2023-03-01T00:06:25;102115.63;;;-3.49;83.94
72262;BME280;60173;52.112;8.648;2023-03-01T00:08:53;102107.78;;;-3.51;84.39
72262;BME280;60173;52.112;8.648;2023-03-01T00:11:25;102111.63;;;-3.37;83.17
72262;BME280;60173;52.112;8.648;2023-03-01T00:13:54;102105.47;;;-3.13;82.43
72262;BME280;60173;52.112;8.648;2023-03-01T00:16:26;102111.31;;;-3.17;82.29
72262;BME280;60173;52.112;8.648;2023-03-01T00:18:54;102112.63;;;-3.38;83.05
72262;BME280;60173;52.112;8.648;2023-03-01T00:21:22;102120.75;;;-3.39;83.62
72262;BME280;60173;52.112;8.648;2023-03-01T00:23:49;102117.94;;;-3.46;83.55
72262;BME280;60173;52.112;8.648;2023-03-01T00:26:16;102111.28;;;-3.58;83.69
72262;BME280;60173;52.112;8.648;2023-03-01T00:28:43;102112.94;;;-3.66;84.68
72262;BME280;60173;52.112;8.648;2023-03-01T00:31:13;102104.63;;;-3.63;84.68
72262;BME280;60173;52.112;8.648;2023-03-01T00:33:41;102116.25;;;-3.72;84.65
72262;BME280;60173;52.112;8.648;2023-03-01T00:36:09;102125.00;;;-3.79;85.06
72262;BME280;60173;52.112;8.648;2023-03-01T00:38:40;102115.53;;;-3.90;85.09
72262;BME280;60173;52.112;8.648;2023-03-01T00:41:09;102118.84;;;-3.96;85.65
72262;BME280;60173;52.112;8.648;2023-03-01T00:43:36;102120.22;;;-3.76;85.83
72262;BME280;60173;52.112;8.648;2023-03-01T00:46:08;102112.03;;;-3.91;85.17
72262;BME280;60173;52.112;8.648;2023-03-01T00:48:35;102106.38;;;-4.04;85.74
72262;BME280;60173;52.112;8.648;2023-03-01T00:51:10;102112.81;;;-4.06;86.26
72262;BME280;60173;52.112;8.648;2023-03-01T00:53:37;102107.03;;;-4.10;86.54
72262;BME280;60173;52.112;8.648;2023-03-01T00:56:05;102099.53;;;-4.15;86.61
72262;BME280;60173;52.112;8.648;2023-03-01T00:58:32;102109.47;;;-4.17;86.80
72262;BME280;60173;52.112;8.648;2023-03-01T01:00:59;102117.41;;;-4.17;86.91
72262;BME280;60173;52.112;8.648;2023-03-01T01:03:26;102109.97;;;-4.21;87.21
72262;BME280;60173;52.112;8.648;2023-03-01T01:05:52;102115.31;;;-4.13;86.78
72262;BME280;60173;52.112;8.648;2023-03-01T01:08:20;102105.88;;;-4.07;86.81
72262;BME280;60173;52.112;8.648;2023-03-01T01:10:47;102103.53;;;-4.11;87.13
72262;BME280;60173;52.112;8.648;2023-03-01T01:13:13;102106.81;;;-4.17;87.33
72262;BME280;60173;52.112;8.648;2023-03-01T01:15:40;102101.50;;;-4.17;87.49
72262;BME280;60173;52.112;8.648;2023-03-01T01:18:07;102100.63;;;-4.34;87.68
72262;BME280;60173;52.112;8.648;2023-03-01T01:20:35;102097.13;;;-4.42;88.25
72262;BME280;60173;52.112;8.648;2023-03-01T01:23:01;102091.13;;;-4.44;89.07
72262;BME280;60173;52.112;8.648;2023-03-01T01:25:28;102084.31;;;-4.47;89.46
72262;BME280;60173;52.112;8.648;2023-03-01T01:27:54;102074.50;;;-4.55;89.54
72262;BME280;60173;52.112;8.648;2023-03-01T01:30:20;102072.16;;;-4.58;90.08
72262;BME280;60173;52.112;8.648;2023-03-01T01:32:47;102079.16;;;-4.57;90.25
72262;BME280;60173;52.112;8.648;2023-03-01T01:35:13;102077.97;;;-4.62;90.35
72262;BME280;60173;52.112;8.648;2023-03-01T01:37:39;102074.00;;;-4.58;89.89
72262;BME280;60173;52.112;8.648;2023-03-01T01:40:06;102082.13;;;-4.51;89.70
72262;BME280;60173;52.112;8.648;2023-03-01T01:42:33;102079.53;;;-4.43;89.84
72262;BME280;60173;52.112;8.648;2023-03-01T01:45:32;102072.88;;;-4.47;89.37
72262;BME280;60173;52.112;8.648;2023-03-01T01:48:02;102071.19;;;-4.48;89.42
72262;BME280;60173;52.112;8.648;2023-03-01T01:50:31;102069.19;;;-4.55;89.00
72262;BME280;60173;52.112;8.648;2023-03-01T01:52:59;102066.84;;;-4.58;89.02
72262;BME280;60173;52.112;8.648;2023-03-01T01:55:27;102066.53;;;-4.63;89.11
72262;BME280;60173;52.112;8.648;2023-03-01T01:57:56;102061.88;;;-4.61;89.28
72262;BME280;60173;52.112;8.648;2023-03-01T02:00:26;102065.22;;;-4.59;89.55
72262;BME280;60173;52.112;8.648;2023-03-01T02:03:02;102066.84;;;-4.58;89.67
72262;BME280;60173;52.112;8.648;2023-03-01T02:08:31;102062.19;;;-4.64;89.43
72262;BME280;60173;52.112;8.648;2023-03-01T02:10:59;102066.22;;;-4.51;89.10
72262;BME280;60173;52.112;8.648;2023-03-01T02:13:27;102058.41;;;-4.61;88.60
72262;BME280;60173;52.112;8.648;2023-03-01T02:15:53;102058.53;;;-4.71;89.00
72262;BME280;60173;52.112;8.648;2023-03-01T02:18:21;102062.72;;;-4.86;89.54
72262;BME280;60173;52.112;8.648;2023-03-01T02:21:05;102061.03;;;-4.95;90.34
72262;BME280;60173;52.112;8.648;2023-03-01T02:23:35;102060.97;;;-5.04;90.64
72262;BME280;60173;52.112;8.648;2023-03-01T02:28:47;102060.00;;;-5.03;91.13
72262;BME280;60173;52.112;8.648;2023-03-01T02:31:16;102054.06;;;-4.96;91.25
72262;BME280;60173;52.112;8.648;2023-03-01T02:33:43;102056.56;;;-4.95;90.74
72262;BME280;60173;52.112;8.648;2023-03-01T02:36:25;102066.28;;;-5.04;90.76
72262;BME280;60173;52.112;8.648;2023-03-01T02:38:57;102062.09;;;-5.14;91.14
72262;BME280;60173;52.112;8.648;2023-03-01T02:41:24;102053.38;;;-5.25;91.66
72262;BME280;60173;52.112;8.648;2023-03-01T02:43:52;102051.50;;;-5.32;92.00
72262;BME280;60173;52.112;8.648;2023-03-01T02:46:24;102053.69;;;-5.28;92.49
72262;BME280;60173;52.112;8.648;2023-03-01T02:48:53;102053.19;;;-5.31;92.58
72262;BME280;60173;52.112;8.648;2023-03-01T02:54:52;102055.72;;;-5.22;92.53
72262;BME280;60173;52.112;8.648;2023-03-01T02:57:23;102049.22;;;-5.27;92.11
72262;BME280;60173;52.112;8.648;2023-03-01T02:59:51;102045.53;;;-5.34;92.12
72262;BME280;60173;52.112;8.648;2023-03-01T03:02:23;102041.00;;;-5.42;92.29
72262;BME280;60173;52.112;8.648;2023-03-01T03:04:50;102038.69;;;-5.45;92.78
72262;BME280;60173;52.112;8.648;2023-03-01T03:07:16;102031.41;;;-5.43;93.32
72262;BME280;60173;52.112;8.648;2023-03-01T03:09:42;102034.56;;;-5.39;93.32
72262;BME280;60173;52.112;8.648;2023-03-01T03:12:09;102032.38;;;-5.44;93.10
72262;BME280;60173;52.112;8.648;2023-03-01T03:14:35;102034.50;;;-5.48;92.95
72262;BME280;60173;52.112;8.648;2023-03-01T03:17:01;102033.69;;;-5.48;93.18
72262;BME280;60173;52.112;8.648;2023-03-01T03:19:28;102029.59;;;-5.42;93.16
72262;BME280;60173;52.112;8.648;2023-03-01T03:21:54;102023.09;;;-5.48;92.93
72262;BME280;60173;52.112;8.648;2023-03-01T03:24:20;102020.56;;;-5.58;92.76
72262;BME280;60173;52.112;8.648;2023-03-01T03:26:47;102021.44;;;-5.67;92.91
72262;BME280;60173;52.112;8.648;2023-03-01T03:29:13;102017.16;;;-5.68;93.23
72262;BME280;60173;52.112;8.648;2023-03-01T03:31:39;102024.47;;;-5.62;93.57
72262;BME280;60173;52.112;8.648;2023-03-01T03:34:06;102021.16;;;-5.64;93.53
72262;BME280;60173;52.112;8.648;2023-03-01T03:36:32;102021.75;;;-5.70;93.23
72262;BME280;60173;52.112;8.648;2023-03-01T03:38:58;102022.06;;;-5.73;93.40
72262;BME280;60173;52.112;8.648;2023-03-01T03:41:25;102020.78;;;-5.69;93.48
72262;BME280;60173;52.112;8.648;2023-03-01T03:43:51;102006.03;;;-5.72;93.62
72262;BME280;60173;52.112;8.648;2023-03-01T03:46:17;102018.44;;;-5.72;93.33
72262;BME280;60173;52.112;8.648;2023-03-01T03:48:45;102005.13;;;-5.80;93.36
72262;BME280;60173;52.112;8.648;2023-03-01T03:51:13;102009.75;;;-5.82;93.71
72262;BME280;60173;52.112;8.648;2023-03-01T03:53:41;102002.19;;;-5.77;94.18
72262;BME280;60173;52.112;8.648;2023-03-01T03:56:07;101996.97;;;-5.69;94.29
72262;BME280;60173;52.112;8.648;2023-03-01T03:58:34;101996.97;;;-5.69;93.75
72262;BME280;60173;52.112;8.648;2023-03-01T04:01:00;101993.94;;;-5.74;93.56
72262;BME280;60173;52.112;8.648;2023-03-01T04:03:28;101992.03;;;-5.82;93.40
72262;BME280;60173;52.112;8.648;2023-03-01T04:05:57;101987.06;;;-5.85;93.60
72262;BME280;60173;52.112;8.648;2023-03-01T04:08:24;101987.88;;;-5.84;93.90
72262;BME280;60173;52.112;8.648;2023-03-01T04:10:52;101991.38;;;-5.84;94.18
72262;BME280;60173;52.112;8.648;2023-03-01T04:13:21;101985.69;;;-5.71;94.10
72262;BME280;60173;52.112;8.648;2023-03-01T04:15:52;101978.06;;;-5.74;94.04
72262;BME280;60173;52.112;8.648;2023-03-01T04:18:20;101979.88;;;-5.75;94.15
72262;BME280;60173;52.112;8.648;2023-03-01T04:20:47;101984.38;;;-5.67;93.66
72262;BME280;60173;52.112;8.648;2023-03-01T04:23:18;101991.00;;;-5.71;93.25
72262;BME280;60173;52.112;8.648;2023-03-01T04:25:54;101994.84;;;-5.83;93.12
72262;BME280;60173;52.112;8.648;2023-03-01T04:28:23;101987.88;;;-5.84;93.51
72262;BME280;60173;52.112;8.648;2023-03-01T04:30:51;101990.41;;;-5.83;93.41
72262;BME280;60173;52.112;8.648;2023-03-01T04:33:18;101988.19;;;-5.87;92.92
72262;BME280;60173;52.112;8.648;2023-03-01T04:38:15;101988.31;;;-5.97;92.93
72262;BME280;60173;52.112;8.648;2023-03-01T04:40:42;101987.63;;;-5.99;92.97
72262;BME280;60173;52.112;8.648;2023-03-01T04:43:09;101991.13;;;-5.99;92.79
72262;BME280;60173;52.112;8.648;2023-03-01T04:45:36;101992.25;;;-6.01;93.01
72262;BME280;60173;52.112;8.648;2023-03-01T04:48:03;101997.31;;;-6.08;93.05
72262;BME280;60173;52.112;8.648;2023-03-01T04:50:30;101997.44;;;-5.92;93.22
72262;BME280;60173;52.112;8.648;2023-03-01T04:52:56;101995.31;;;-5.88;93.00
72262;BME280;60173;52.112;8.648;2023-03-01T04:55:23;101997.06;;;-5.97;92.65
72262;BME280;60173;52.112;8.648;2023-03-01T04:57:49;101992.25;;;-6.01;92.60
72262;BME280;60173;52.112;8.648;2023-03-01T05:00:15;102006.22;;;-6.09;92.64
72262;BME280;60173;52.112;8.648;2023-03-01T05:02:42;101999.03;;;-6.17;92.98
72262;BME280;60173;52.112;8.648;2023-03-01T05:05:08;102006.63;;;-6.22;93.19
72262;BME280;60173;52.112;8.648;2023-03-01T05:07:35;102004.72;;;-6.29;93.56
72262;BME280;60173;52.112;8.648;2023-03-01T05:10:01;101995.03;;;-6.39;93.77
72262;BME280;60173;52.112;8.648;2023-03-01T05:12:27;101997.66;;;-6.39;94.43
72262;BME280;60173;52.112;8.648;2023-03-01T05:14:53;101999.41;;;-6.29;94.98
72262;BME280;60173;52.112;8.648;2023-03-01T05:17:20;101995.78;;;-6.28;94.89
72262;BME280;60173;52.112;8.648;2023-03-01T05:19:46;101987.19;;;-6.30;94.86
72262;BME280;60173;52.112;8.648;2023-03-01T05:22:12;101994.13;;;-6.29;94.88
72262;BME280;60173;52.112;8.648;2023-03-01T05:24:39;101993.81;;;-6.26;94.67
72262;BME280;60173;52.112;8.648;2023-03-01T05:27:05;101988.66;;;-6.28;94.59
72262;BME280;60173;52.112;8.648;2023-03-01T05:29:32;101987.47;;;-6.33;94.44
72262;BME280;60173;52.112;8.648;2023-03-01T05:32:00;101987.19;;;-6.30;94.19
72262;BME280;60173;52.112;8.648;2023-03-01T05:34:34;101994.31;;;-6.13;94.03
72262;BME280;60173;52.112;8.648;2023-03-01T05:37:02;102001.47;;;-6.23;94.17
72262;BME280;60173;52.112;8.648;2023-03-01T05:39:29;101993.59;;;-6.15;93.88
72262;BME280;60173;52.112;8.648;2023-03-01T05:41:57;101996.25;;;-6.15;93.61
72262;BME280;60173;52.112;8.648;2023-03-01T05:44:25;101996.34;;;-6.25;93.59
72262;BME280;60173;52.112;8.648;2023-03-01T05:46:52;101994.25;;;-6.31;93.50
72262;BME280;60173;52.112;8.648;2023-03-01T05:49:18;101992.47;;;-6.30;93.73
72262;BME280;60173;52.112;8.648;2023-03-01T05:51:49;101997.53;;;-6.19;93.34
72262;BME280;60173;52.112;8.648;2023-03-01T05:54:17;101993.22;;;-6.02;92.21
72262;BME280;60173;52.112;8.648;2023-03-01T05:56:44;101985.84;;;-5.99;91.87
72262;BME280;60173;52.112;8.648;2023-03-01T05:59:11;101990.44;;;-6.01;92.54
72262;BME280;60173;52.112;8.648;2023-03-01T06:01:37;101985.50;;;-6.14;92.91
72262;BME280;60173;52.112;8.648;2023-03-01T06:04:04;101984.25;;;-6.27;92.54
72262;BME280;60173;52.112;8.648;2023-03-01T06:06:35;101993.72;;;-6.34;92.73
72262;BME280;60173;52.112;8.648;2023-03-01T06:09:01;101994.13;;;-6.29;93.05
72262;BME280;60173;52.112;8.648;2023-03-01T06:11:28;101992.63;;;-6.14;92.98
72262;BME280;60173;52.112;8.648;2023-03-01T06:13:54;102000.34;;;-6.21;92.73
72262;BME280;60173;52.112;8.648;2023-03-01T06:16:21;101997.47;;;-6.27;92.36
72262;BME280;60173;52.112;8.648;2023-03-01T06:18:47;102000.75;;;-6.25;92.76
72262;BME280;60173;52.112;8.648;2023-03-01T06:21:13;101993.13;;;-6.28;92.41
72262;BME280;60173;52.112;8.648;2023-03-01T06:23:40;102000.09;;;-6.27;92.55
72262;BME280;60173;52.112;8.648;2023-03-01T06:26:07;102002.16;;;-6.21;92.43
72262;BME280;60173;52.112;8.648;2023-03-01T06:28:35;102006.75;;;-6.05;92.07
72262;BME280;60173;52.112;8.648;2023-03-01T06:31:01;101998.06;;;-5.98;92.07
72262;BME280;60173;52.112;8.648;2023-03-01T06:33:28;101991.88;;;-6.06;92.41
72262;BME280;60173;52.112;8.648;2023-03-01T06:35:55;101990.88;;;-6.05;92.53
72262;BME280;60173;52.112;8.648;2023-03-01T06:38:22;102000.34;;;-6.03;92.35
72262;BME280;60173;52.112;8.648;2023-03-01T06:40:53;102004.28;;;-6.07;92.28
72262;BME280;60173;52.112;8.648;2023-03-01T06:43:20;102007.56;;;-6.05;92.14
72262;BME280;60173;52.112;8.648;2023-03-01T06:45:47;102001.72;;;-5.99;92.61
72262;BME280;60173;52.112;8.648;2023-03-01T06:48:13;102002.22;;;-5.95;92.29
72262;BME280;60173;52.112;8.648;2023-03-01T06:50:40;102004.72;;;-5.94;92.14
72262;BME280;60173;52.112;8.648;2023-03-01T06:53:06;101989.88;;;-5.86;92.41
72262;BME280;60173;52.112;8.648;2023-03-01T06:55:32;101995.91;;;-5.76;92.62
72262;BME280;60173;52.112;8.648;2023-03-01T06:58:00;101987.72;;;-5.65;92.55
72262;BME280;60173;52.112;8.648;2023-03-01T07:00:28;101984.84;;;-5.54;92.33
72262;BME280;60173;52.112;8.648;2023-03-01T07:02:54;101995.84;;;-5.40;91.95
72262;BME280;60173;52.112;8.648;2023-03-01T07:05:21;101981.72;;;-5.23;91.55
72262;BME280;60173;52.112;8.648;2023-03-01T07:07:47;101979.84;;;-5.05;91.02
72262;BME280;60173;52.112;8.648;2023-03-01T07:10:14;101983.84;;;-4.92;90.63
72262;BME280;60173;52.112;8.648;2023-03-01T07:12:40;101977.63;;;-4.75;89.88
72262;BME280;60173;52.112;8.648;2023-03-01T07:15:09;101978.75;;;-4.43;89.51
72262;BME280;60173;52.112;8.648;2023-03-01T07:17:36;101979.75;;;-4.36;88.92
72262;BME280;60173;52.112;8.648;2023-03-01T07:20:02;101982.41;;;-4.36;89.41
72262;BME280;60173;52.112;8.648;2023-03-01T07:22:29;101974.66;;;-4.21;89.30
72262;BME280;60173;52.112;8.648;2023-03-01T07:24:55;101969.03;;;-4.10;88.54
72262;BME280;60173;52.112;8.648;2023-03-01T07:27:21;101968.19;;;-4.02;88.22
72262;BME280;60173;52.112;8.648;2023-03-01T07:29:48;101966.38;;;-3.94;88.14
72262;BME280;60173;52.112;8.648;2023-03-01T07:32:14;101966.22;;;-3.76;88.02
72262;BME280;60173;52.112;8.648;2023-03-01T07:34:41;101956.59;;;-3.69;87.30
72262;BME280;60173;52.112;8.648;2023-03-01T07:37:07;101963.25;;;-3.73;86.86
72262;BME280;60173;52.112;8.648;2023-03-01T07:39:33;101958.22;;;-3.68;86.97
72262;BME280;60173;52.112;8.648;2023-03-01T07:41:59;101955.56;;;-3.59;86.96
72262;BME280;60173;52.112;8.648;2023-03-01T07:44:26;101959.56;;;-3.64;87.54
72262;BME280;60173;52.112;8.648;2023-03-01T07:46:52;101948.78;;;-3.62;88.08
72262;BME280;60173;52.112;8.648;2023-03-01T07:49:19;101950.94;;;-3.49;88.35
72262;BME280;60173;52.112;8.648;2023-03-01T07:51:45;101944.25;;;-3.37;88.32
72262;BME280;60173;52.112;8.648;2023-03-01T07:54:11;101948.88;;;-3.31;88.01
72262;BME280;60173;52.112;8.648;2023-03-01T07:56:38;101959.47;;;-3.14;87.88
72262;BME280;60173;52.112;8.648;2023-03-01T07:59:04;101958.75;;;-2.92;87.37
72262;BME280;60173;52.112;8.648;2023-03-01T08:01:30;101955.38;;;-2.78;86.34
72262;BME280;60173;52.112;8.648;2023-03-01T08:03:57;101962.91;;;-2.58;85.37
72262;BME280;60173;52.112;8.648;2023-03-01T08:06:23;101966.19;;;-2.48;84.46
72262;BME280;60173;52.112;8.648;2023-03-01T08:08:49;101964.25;;;-2.31;84.68
72262;BME280;60173;52.112;8.648;2023-03-01T08:11:16;101960.69;;;-2.23;84.80
72262;BME280;60173;52.112;8.648;2023-03-01T08:13:43;101956.47;;;-2.10;84.79
72262;BME280;60173;52.112;8.648;2023-03-01T08:16:12;101950.53;;;-1.97;84.59
72262;BME280;60173;52.112;8.648;2023-03-01T08:18:38;101949.13;;;-1.85;84.16
72262;BME280;60173;52.112;8.648;2023-03-01T08:21:11;101952.63;;;-1.69;84.21
72262;BME280;60173;52.112;8.648;2023-03-01T08:23:38;101952.56;;;-1.61;83.66
72262;BME280;60173;52.112;8.648;2023-03-01T08:28:32;101942.31;;;-1.20;83.38
72262;BME280;60173;52.112;8.648;2023-03-01T08:30:58;101937.91;;;-0.98;82.87
72262;BME280;60173;52.112;8.648;2023-03-01T08:33:24;101933.16;;;-0.66;81.93
72262;BME280;60173;52.112;8.648;2023-03-01T08:35:51;101935.97;;;-0.53;79.26
72262;BME280;60173;52.112;8.648;2023-03-01T08:38:17;101928.31;;;-0.77;76.57
72262;BME280;60173;52.112;8.648;2023-03-01T08:40:43;101932.28;;;-0.88;76.18
72262;BME280;60173;52.112;8.648;2023-03-01T08:43:10;101934.41;;;-0.83;76.43
72262;BME280;60173;52.112;8.648;2023-03-01T08:45:36;101927.47;;;-0.41;76.01
72262;BME280;60173;52.112;8.648;2023-03-01T08:48:02;101930.06;;;0.16;74.03
72262;BME280;60173;52.112;8.648;2023-03-01T08:50:29;101929.38;;;0.29;72.50
72262;BME280;60173;52.112;8.648;2023-03-01T08:52:55;101921.28;;;0.51;71.54
72262;BME280;60173;52.112;8.648;2023-03-01T08:55:21;101928.59;;;0.35;71.67
72262;BME280;60173;52.112;8.648;2023-03-01T08:57:48;101919.41;;;0.44;71.79
72262;BME280;60173;52.112;8.648;2023-03-01T09:00:14;101924.75;;;0.79;71.53
72262;BME280;60173;52.112;8.648;2023-03-01T09:02:41;101923.56;;;0.88;70.62
72262;BME280;60173;52.112;8.648;2023-03-01T09:05:07;101924.44;;;0.96;69.99
72262;BME280;60173;52.112;8.648;2023-03-01T09:07:34;101918.50;;;1.00;69.91
72262;BME280;60173;52.112;8.648;2023-03-01T09:10:00;101923.50;;;1.10;69.18
72262;BME280;60173;52.112;8.648;2023-03-01T09:12:27;101917.66;;;1.00;70.09
72262;BME280;60173;52.112;8.648;2023-03-01T09:14:53;101921.19;;;1.07;69.92
72262;BME280;60173;52.112;8.648;2023-03-01T09:17:19;101928.78;;;1.45;69.44
72262;BME280;60173;52.112;8.648;2023-03-01T09:19:46;101918.66;;;1.47;67.52
72262;BME280;60173;52.112;8.648;2023-03-01T09:22:12;101923.19;;;1.40;66.50
72262;BME280;60173;52.112;8.648;2023-03-01T09:24:38;101923.41;;;1.45;67.14
72262;BME280;60173;52.112;8.648;2023-03-01T09:27:04;101913.97;;;1.62;63.92
72262;BME280;60173;52.112;8.648;2023-03-01T09:29:31;101910.72;;;1.87;62.35
72262;BME280;60173;52.112;8.648;2023-03-01T09:31:58;101907.44;;;1.98;62.16
72262;BME280;60173;52.112;8.648;2023-03-01T09:34:25;101909.06;;;1.86;60.77
72262;BME280;60173;52.112;8.648;2023-03-01T09:36:51;101894.03;;;2.18;58.42
72262;BME280;60173;52.112;8.648;2023-03-01T09:39:18;101904.53;;;2.19;57.43
72262;BME280;60173;52.112;8.648;2023-03-01T09:47:19;101893.81;;;2.19;56.53
72262;BME280;60173;52.112;8.648;2023-03-01T09:50:13;101889.69;;;2.30;55.65
72262;BME280;60173;52.112;8.648;2023-03-01T09:52:42;101882.66;;;2.49;54.94
72262;BME280;60173;52.112;8.648;2023-03-01T09:55:34;101883.66;;;2.48;54.75
72262;BME280;60173;52.112;8.648;2023-03-01T09:58:34;101882.66;;;2.49;54.44
72262;BME280;60173;52.112;8.648;2023-03-01T10:01:16;101890.50;;;2.31;55.10
72262;BME280;60173;52.112;8.648;2023-03-01T10:06:28;101883.47;;;2.49;53.80
72262;BME280;60173;52.112;8.648;2023-03-01T10:09:11;101886.28;;;2.75;54.23
72262;BME280;60173;52.112;8.648;2023-03-01T10:11:43;101882.44;;;2.44;54.09
72262;BME280;60173;52.112;8.648;2023-03-01T10:17:00;101876.03;;;2.58;53.17
72262;BME280;60173;52.112;8.648;2023-03-01T10:19:38;101861.59;;;2.53;54.47
72262;BME280;60173;52.112;8.648;2023-03-01T10:22:14;101864.41;;;2.78;53.17
72262;BME280;60173;52.112;8.648;2023-03-01T10:24:41;101874.16;;;2.72;53.31
72262;BME280;60173;52.112;8.648;2023-03-01T10:27:17;101874.84;;;2.28;54.60
72262;BME280;60173;52.112;8.648;2023-03-01T10:32:39;101863.91;;;3.07;53.66
72262;BME280;60173;52.112;8.648;2023-03-01T10:35:25;101862.59;;;3.16;53.45
72262;BME280;60173;52.112;8.648;2023-03-01T10:37:58;101860.78;;;3.04;52.36
72262;BME280;60173;52.112;8.648;2023-03-01T10:40:28;101865.66;;;2.68;53.42
72262;BME280;60173;52.112;8.648;2023-03-01T10:42:57;101856.94;;;2.86;54.04
72262;BME280;60173;52.112;8.648;2023-03-01T10:45:32;101868.78;;;2.72;53.72
72262;BME280;60173;52.112;8.648;2023-03-01T10:50:46;101870.03;;;2.56;53.94
72262;BME280;60173;52.112;8.648;2023-03-01T10:53:30;101860.19;;;2.95;53.42
72262;BME280;60173;52.112;8.648;2023-03-01T10:58:29;101855.56;;;3.22;53.12
72262;BME280;60173;52.112;8.648;2023-03-01T11:03:42;101858.78;;;2.92;53.26
72262;BME280;60173;52.112;8.648;2023-03-01T11:08:39;101857.50;;;3.40;52.86
72262;BME280;60173;52.112;8.648;2023-03-01T11:13:35;101854.22;;;3.38;52.62
72262;BME280;60173;52.112;8.648;2023-03-01T11:16:12;101848.31;;;3.23;52.03
72262;BME280;60173;52.112;8.648;2023-03-01T11:18:38;101849.22;;;3.10;53.05
72262;BME280;60173;52.112;8.648;2023-03-01T11:21:15;101846.75;;;3.08;51.84
72262;BME280;60173;52.112;8.648;2023-03-01T11:23:43;101858.53;;;3.07;52.85
72262;BME280;60173;52.112;8.648;2023-03-01T11:26:12;101853.19;;;3.39;52.01
72262;BME280;60173;52.112;8.648;2023-03-01T11:28:41;101856.47;;;3.73;51.22
72262;BME280;60173;52.112;8.648;2023-03-01T11:31:10;101845.38;;;3.62;51.77
72262;BME280;60173;52.112;8.648;2023-03-01T11:33:47;101852.69;;;3.80;50.60
72262;BME280;60173;52.112;8.648;2023-03-01T11:38:42;101832.34;;;3.66;50.37
72262;BME280;60173;52.112;8.648;2023-03-01T11:41:26;101835.97;;;3.53;50.18
72262;BME280;60173;52.112;8.648;2023-03-01T11:43:59;101834.03;;;3.29;50.85
72262;BME280;60173;52.112;8.648;2023-03-01T11:49:32;101833.53;;;3.95;48.56
72262;BME280;60173;52.112;8.648;2023-03-01T12:11:42;101813.16;;;4.31;48.33
72262;BME280;60173;52.112;8.648;2023-03-01T12:20:11;101802.22;;;4.63;49.00
72262;BME280;60173;52.112;8.648;2023-03-01T12:25:38;101793.50;;;4.30;51.23
72262;BME280;60173;52.112;8.648;2023-03-01T12:28:25;101778.03;;;4.26;50.88
72262;BME280;60173;52.112;8.648;2023-03-01T12:31:08;101778.31;;;4.18;51.27
72262;BME280;60173;52.112;8.648;2023-03-01T12:34:00;101770.72;;;4.33;51.09
72262;BME280;60173;52.112;8.648;2023-03-01T12:39:38;101757.41;;;4.38;50.94
72262;BME280;60173;52.112;8.648;2023-03-01T12:42:46;101745.25;;;4.17;51.09
72262;BME280;60173;52.112;8.648;2023-03-01T12:45:32;101741.44;;;4.43;50.59
72262;BME280;60173;52.112;8.648;2023-03-01T12:50:49;101733.72;;;4.77;50.94
72262;BME280;60173;52.112;8.648;2023-03-01T12:53:25;101737.41;;;4.94;51.26
72262;BME280;60173;52.112;8.648;2023-03-01T12:55:55;101736.56;;;4.52;51.63
72262;BME280;60173;52.112;8.648;2023-03-01T12:58:41;101723.16;;;4.64;51.56
72262;BME280;60173;52.112;8.648;2023-03-01T13:04:20;101730.25;;;4.58;51.47
72262;BME280;60173;52.112;8.648;2023-03-01T13:17:56;101711.19;;;4.90;50.66
72262;BME280;60173;52.112;8.648;2023-03-01T13:20:29;101706.91;;;4.70;50.89
72262;BME280;60173;52.112;8.648;2023-03-01T13:23:06;101700.22;;;5.03;50.23
72262;BME280;60173;52.112;8.648;2023-03-01T13:25:33;101695.06;;;4.90;51.08
72262;BME280;60173;52.112;8.648;2023-03-01T13:31:04;101694.03;;;5.03;50.16
72262;BME280;60173;52.112;8.648;2023-03-01T13:35:58;101697.16;;;4.99;48.62
72262;BME280;60173;52.112;8.648;2023-03-01T13:38:55;101696.19;;;5.48;49.28
72262;BME280;60173;52.112;8.648;2023-03-01T13:44:30;101674.69;;;5.06;47.85
72262;BME280;60173;52.112;8.648;2023-03-01T13:47:06;101671.00;;;5.18;48.15
72262;BME280;60173;52.112;8.648;2023-03-01T13:49:47;101666.25;;;4.90;48.92
72262;BME280;60173;52.112;8.648;2023-03-01T13:54:55;101659.84;;;5.15;47.51
72262;BME280;60173;52.112;8.648;2023-03-01T13:57:26;101662.94;;;5.42;46.89
72262;BME280;60173;52.112;8.648;2023-03-01T13:59:55;101665.28;;;5.62;45.93
72262;BME280;60173;52.112;8.648;2023-03-01T14:02:21;101654.72;;;5.25;47.31
72262;BME280;60173;52.112;8.648;2023-03-01T14:05:00;101663.53;;;5.44;47.89
72262;BME280;60173;52.112;8.648;2023-03-01T14:07:27;101660.44;;;5.52;48.95
72262;BME280;60173;52.112;8.648;2023-03-01T14:10:00;101655.19;;;5.34;48.49
72262;BME280;60173;52.112;8.648;2023-03-01T14:12:49;101662.16;;;4.99;49.46
72262;BME280;60173;52.112;8.648;2023-03-01T14:15:24;101659.97;;;5.20;49.46
72262;BME280;60173;52.112;8.648;2023-03-01T14:20:37;101661.84;;;5.08;50.20
72262;BME280;60173;52.112;8.648;2023-03-01T14:23:11;101655.19;;;5.22;49.92
72262;BME280;60173;52.112;8.648;2023-03-01T14:25:48;101652.69;;;4.97;49.86
72262;BME280;60173;52.112;8.648;2023-03-01T14:28:19;101647.78;;;5.06;49.57
72262;BME280;60173;52.112;8.648;2023-03-01T14:30:51;101641.09;;;4.96;49.12
72262;BME280;60173;52.112;8.648;2023-03-01T14:35:59;101632.66;;;4.81;49.01
72262;BME280;60173;52.112;8.648;2023-03-01T14:38:37;101633.97;;;5.02;48.13
72262;BME280;60173;52.112;8.648;2023-03-01T14:41:10;101634.22;;;5.12;49.04
72262;BME280;60173;52.112;8.648;2023-03-01T14:43:39;101627.31;;;5.05;48.68
72262;BME280;60173;52.112;8.648;2023-03-01T14:46:18;101629.41;;;5.03;49.04
72262;BME280;60173;52.112;8.648;2023-03-01T14:48:45;101622.38;;;5.02;49.26
72262;BME280;60173;52.112;8.648;2023-03-01T14:51:14;101616.72;;;4.91;48.27
72262;BME280;60173;52.112;8.648;2023-03-01T14:53:41;101621.09;;;4.92;48.03
72262;BME280;60173;52.112;8.648;2023-03-01T14:56:17;101610.88;;;4.94;48.16